Time,TemperatureF,DewpointF,PressureIn,WindDirection,WindDirectionDegrees,WindSpeedMPH,WindSpeedGustMPH,Humidity,HourlyPrecipIn,Conditions,Clouds,dailyrainin,SoftwareType,DateUTC
2013-09-29 00:11:00,56.5,52.0,30.25,East,89,0.0,0.0,84,0.00,,,0.00,weatherlink.com 1.10,2013-09-29 04:11:00,
2013-09-29 00:26:00,56.2,52.0,30.24,East,89,0.0,0.0,85,0.00,,,0.00,weatherlink.com 1.10,2013-09-29 04:26:00,
2013-09-29 00:41:00,55.9,52.0,30.24,East,89,0.0,0.0,85,0.00,,,0.00,weatherlink.com 1.10,2013-09-29 04:41:00,
2013-09-29 00:56:00,55.7,52.0,30.24,East,89,0.0,0.0,86,0.00,,,0.00,weatherlink.com 1.10,2013-09-29 04:56:00,
2013-09-29 01:11:00,55.5,51.0,30.24,East,89,0.0,0.0,86,0.00,,,0.00,weatherlink.com 1.10,2013-09-29 05:11:00,
2013-09-29 01:26:00,55.4,51.0,30.24,East,89,0.0,0.0,86,0.00,,,0.00,weatherlink.com 1.10,2013-09-29 05:26:00,
2013-09-29 01:41:00,55.3,52.0,30.24,East,89,0.0,0.0,87,0.00,,,0.00,weatherlink.com 1.10,2013-09-29 05:41:00,
2013-09-29 01:56:00,55.1,51.0,30.23,East,89,0.0,0.0,87,0.00,,,0.00,weatherlink.com 1.10,2013-09-29 05:56:00,
2013-09-29 02:11:00,54.9,52.0,30.23,East,89,0.0,0.0,88,0.00,,,0.00,weatherlink.com 1.10,2013-09-29 06:11:00,
2013-09-29 02:26:00,54.7,51.0,30.23,East,89,0.0,1.0,88,0.00,,,0.00,weatherlink.com 1.10,2013-09-29 06:26:00,
2013-09-29 02:41:00,54.8,51.0,30.22,East,89,0.0,0.0,88,0.00,,,0.00,weatherlink.com 1.10,2013-09-29 06:41:00,
2013-09-29 02:56:00,54.5,51.0,30.22,East,89,0.0,1.0,89,0.00,,,0.00,weatherlink.com 1.10,2013-09-29 06:56:00,
2013-09-29 03:11:00,54.6,52.0,30.21,East,89,0.0,1.0,89,0.00,,,0.00,weatherlink.com 1.10,2013-09-29 07:11:00,
2013-09-29 03:26:00,54.4,51.0,30.21,East,89,0.0,0.0,89,0.00,,,0.00,weatherlink.com 1.10,2013-09-29 07:26:00,
2013-09-29 03:41:00,54.1,51.0,30.20,East,89,0.0,0.0,90,0.00,,,0.00,weatherlink.com 1.10,2013-09-29 07:41:00,
2013-09-29 03:56:00,53.7,51.0,30.20,East,89,0.0,0.0,90,0.00,,,0.00,weatherlink.com 1.10,2013-09-29 07:56:00,
2013-09-29 04:11:00,53.5,51.0,30.20,East,89,0.0,0.0,91,0.00,,,0.00,weatherlink.com 1.10,2013-09-29 08:11:00,
2013-09-29 04:26:00,53.6,51.0,30.20,East,89,0.0,0.0,91,0.00,,,0.00,weatherlink.com 1.10,2013-09-29 08:26:00,
2013-09-29 04:41:00,53.4,51.0,30.20,ESE,107,0.0,1.0,92,0.00,,,0.00,weatherlink.com 1.10,2013-09-29 08:41:00,
2013-09-29 04:56:00,53.7,51.0,30.20,ESE,107,0.0,1.0,91,0.00,,,0.00,weatherlink.com 1.10,2013-09-29 08:56:00,
2013-09-29 05:11:00,53.8,51.0,30.20,ESE,108,0.0,1.0,91,0.00,,,0.00,weatherlink.com 1.10,2013-09-29 09:11:00,
2013-09-29 05:26:00,53.4,51.0,30.19,ESE,107,0.0,0.0,91,0.00,,,0.00,weatherlink.com 1.10,2013-09-29 09:26:00,
2013-09-29 05:41:00,53.1,51.0,30.19,ESE,107,0.0,1.0,92,0.00,,,0.00,weatherlink.com 1.10,2013-09-29 09:41:00,
2013-09-29 05:56:00,53.0,51.0,30.20,ESE,108,0.0,0.0,92,0.00,,,0.00,weatherlink.com 1.10,2013-09-29 09:56:00,
2013-09-29 06:11:00,52.7,51.0,30.19,ESE,106,0.0,1.0,92,0.00,,,0.00,weatherlink.com 1.10,2013-09-29 10:11:00,
2013-09-29 06:26:00,53.1,51.0,30.20,ESE,105,0.0,1.0,92,0.00,,,0.00,weatherlink.com 1.10,2013-09-29 10:26:00,
2013-09-29 06:41:00,52.9,51.0,30.20,ESE,105,0.0,1.0,92,0.00,,,0.00,weatherlink.com 1.10,2013-09-29 10:41:00,
2013-09-29 06:56:00,52.7,51.0,30.20,ESE,105,0.0,1.0,92,0.00,,,0.00,weatherlink.com 1.10,2013-09-29 10:56:00,
2013-09-29 07:11:00,52.8,51.0,30.20,ESE,106,0.0,0.0,93,0.00,,,0.00,weatherlink.com 1.10,2013-09-29 11:11:00,
2013-09-29 07:26:00,52.7,51.0,30.20,ESE,105,0.0,0.0,92,0.00,,,0.00,weatherlink.com 1.10,2013-09-29 11:26:00,
2013-09-29 07:41:00,52.7,51.0,30.21,ESE,105,0.0,0.0,93,0.00,,,0.00,weatherlink.com 1.10,2013-09-29 11:41:00,
2013-09-29 07:56:00,53.2,51.0,30.21,ESE,105,0.0,1.0,93,0.00,,,0.00,weatherlink.com 1.10,2013-09-29 11:56:00,
2013-09-29 08:11:00,53.9,52.0,30.21,ESE,106,0.0,0.0,92,0.00,,,0.00,weatherlink.com 1.10,2013-09-29 12:11:00,
2013-09-29 08:26:00,54.3,52.0,30.21,ESE,105,0.0,0.0,91,0.00,,,0.00,weatherlink.com 1.10,2013-09-29 12:26:00,
2013-09-29 08:41:00,54.5,52.0,30.21,ESE,106,0.0,0.0,90,0.00,,,0.00,weatherlink.com 1.10,2013-09-29 12:41:00,
2013-09-29 08:56:00,55.3,53.0,30.21,ESE,105,0.0,0.0,91,0.00,,,0.00,weatherlink.com 1.10,2013-09-29 12:56:00,
2013-09-29 09:11:00,56.5,54.0,30.21,ESE,105,0.0,0.0,90,0.00,,,0.00,weatherlink.com 1.10,2013-09-29 13:11:00,
2013-09-29 09:26:00,58.1,55.0,30.22,ESE,105,0.0,0.0,89,0.00,,,0.00,weatherlink.com 1.10,2013-09-29 13:26:00,
2013-09-29 09:41:00,59.4,55.0,30.22,ESE,105,0.0,1.0,86,0.00,,,0.00,weatherlink.com 1.10,2013-09-29 13:41:00,
2013-09-29 09:57:00,60.8,56.0,30.22,ESE,105,0.0,1.0,84,0.00,,,0.00,weatherlink.com 1.10,2013-09-29 13:57:00,
2013-09-29 10:12:00,61.4,56.0,30.22,East,96,0.0,2.0,83,0.00,,,0.00,weatherlink.com 1.10,2013-09-29 14:12:00,
2013-09-29 10:27:00,62.6,56.0,30.21,East,96,0.0,1.0,80,0.00,,,0.00,weatherlink.com 1.10,2013-09-29 14:27:00,
2013-09-29 10:42:00,63.3,57.0,30.21,ENE,72,0.0,1.0,79,0.00,,,0.00,weatherlink.com 1.10,2013-09-29 14:42:00,
2013-09-29 10:57:00,63.4,56.0,30.21,ENE,72,0.0,0.0,78,0.00,,,0.00,weatherlink.com 1.10,2013-09-29 14:57:00,
2013-09-29 11:12:00,63.1,57.0,30.20,ESE,111,0.0,1.0,80,0.00,,,0.00,weatherlink.com 1.10,2013-09-29 15:12:00,
2013-09-29 11:27:00,63.2,57.0,30.20,East,96,0.0,3.0,79,0.00,,,0.00,weatherlink.com 1.10,2013-09-29 15:27:00,
2013-09-29 11:42:00,63.0,57.0,30.19,East,96,0.0,1.0,81,0.00,,,0.00,weatherlink.com 1.10,2013-09-29 15:42:00,
2013-09-29 11:57:00,63.6,57.0,30.19,East,96,0.0,1.0,80,0.00,,,0.00,weatherlink.com 1.10,2013-09-29 15:57:00,
2013-09-29 12:12:00,64.3,57.0,30.18,ESE,122,0.0,2.0,76,0.00,,,0.00,weatherlink.com 1.10,2013-09-29 16:12:00,
2013-09-29 12:27:00,67.2,57.0,30.18,ESE,118,0.0,1.0,71,0.00,,,0.00,weatherlink.com 1.10,2013-09-29 16:27:00,
2013-09-29 12:42:00,65.5,56.0,30.18,ESE,118,0.0,1.0,71,0.00,,,0.00,weatherlink.com 1.10,2013-09-29 16:42:00,
2013-09-29 12:57:00,65.0,56.0,30.18,ESE,118,0.0,1.0,72,0.00,,,0.00,weatherlink.com 1.10,2013-09-29 16:57:00,
2013-09-29 13:12:00,66.4,55.0,30.17,NE,43,0.0,2.0,67,0.00,,,0.00,weatherlink.com 1.10,2013-09-29 17:12:00,
2013-09-29 13:27:00,66.7,56.0,30.16,ESE,105,0.0,1.0,69,0.00,,,0.00,weatherlink.com 1.10,2013-09-29 17:27:00,
2013-09-29 13:42:00,68.7,58.0,30.15,ESE,107,0.0,2.0,68,0.00,,,0.00,weatherlink.com 1.10,2013-09-29 17:42:00,
2013-09-29 13:57:00,69.6,55.0,30.15,East,94,0.0,3.0,61,0.00,,,0.00,weatherlink.com 1.10,2013-09-29 17:57:00,
2013-09-29 14:12:00,71.0,55.0,30.14,East,94,0.0,2.0,58,0.00,,,0.00,weatherlink.com 1.10,2013-09-29 18:12:00,
2013-09-29 14:27:00,71.0,55.0,30.14,East,89,0.0,1.0,58,0.00,,,0.00,weatherlink.com 1.10,2013-09-29 18:27:00,
2013-09-29 14:42:00,68.7,55.0,30.13,East,89,0.0,1.0,63,0.00,,,0.00,weatherlink.com 1.10,2013-09-29 18:42:00,
2013-09-29 14:57:00,68.4,56.0,30.13,NNE,18,0.0,1.0,64,0.00,,,0.00,weatherlink.com 1.10,2013-09-29 18:57:00,
2013-09-29 15:12:00,68.0,57.0,30.13,NNE,18,0.0,0.0,67,0.00,,,0.00,weatherlink.com 1.10,2013-09-29 19:12:00,
2013-09-29 15:27:00,68.4,57.0,30.12,ENE,78,0.0,1.0,67,0.00,,,0.00,weatherlink.com 1.10,2013-09-29 19:27:00,
2013-09-29 15:42:00,69.5,57.0,30.11,ENE,78,0.0,0.0,64,0.00,,,0.00,weatherlink.com 1.10,2013-09-29 19:42:00,
2013-09-29 15:57:00,71.2,56.0,30.11,East,86,0.0,2.0,60,0.00,,,0.00,weatherlink.com 1.10,2013-09-29 19:57:00,
2013-09-29 16:12:00,72.7,56.0,30.11,NE,44,1.0,2.0,56,0.00,,,0.00,weatherlink.com 1.10,2013-09-29 20:12:00,
2013-09-29 16:27:00,71.5,55.0,30.10,East,93,0.0,1.0,56,0.00,,,0.00,weatherlink.com 1.10,2013-09-29 20:27:00,
2013-09-29 16:42:00,69.6,55.0,30.10,East,94,0.0,1.0,61,0.00,,,0.00,weatherlink.com 1.10,2013-09-29 20:42:00,
2013-09-29 16:57:00,68.2,55.0,30.09,East,91,0.0,1.0,62,0.00,,,0.00,weatherlink.com 1.10,2013-09-29 20:57:00,
2013-09-29 17:12:00,66.9,55.0,30.10,East,85,0.0,1.0,66,0.00,,,0.00,weatherlink.com 1.10,2013-09-29 21:12:00,
2013-09-29 17:27:00,65.6,56.0,30.10,East,84,0.0,0.0,70,0.00,,,0.00,weatherlink.com 1.10,2013-09-29 21:27:00,
2013-09-29 17:43:00,64.5,56.0,30.09,East,85,0.0,0.0,73,0.00,,,0.00,weatherlink.com 1.10,2013-09-29 21:43:00,
2013-09-29 17:58:00,63.3,56.0,30.10,East,84,0.0,0.0,76,0.00,,,0.00,weatherlink.com 1.10,2013-09-29 21:58:00,
2013-09-29 18:13:00,62.2,55.0,30.10,East,85,0.0,0.0,78,0.00,,,0.00,weatherlink.com 1.10,2013-09-29 22:13:00,
2013-09-29 18:28:00,61.2,55.0,30.10,East,84,0.0,0.0,79,0.00,,,0.00,weatherlink.com 1.10,2013-09-29 22:28:00,
2013-09-29 18:43:00,60.3,54.0,30.10,East,84,0.0,0.0,80,0.00,,,0.00,weatherlink.com 1.10,2013-09-29 22:43:00,
2013-09-29 18:58:00,59.5,54.0,30.10,East,84,0.0,0.0,81,0.00,,,0.00,weatherlink.com 1.10,2013-09-29 22:58:00,
2013-09-29 19:13:00,58.9,53.0,30.10,East,84,0.0,0.0,82,0.00,,,0.00,weatherlink.com 1.10,2013-09-29 23:13:00,
2013-09-29 19:28:00,58.4,53.0,30.11,East,84,0.0,0.0,83,0.00,,,0.00,weatherlink.com 1.10,2013-09-29 23:28:00,
2013-09-29 19:43:00,58.0,54.0,30.11,East,85,0.0,0.0,85,0.00,,,0.00,weatherlink.com 1.10,2013-09-29 23:43:00,
2013-09-29 19:58:00,57.8,53.0,30.11,East,84,0.0,0.0,85,0.00,,,0.00,weatherlink.com 1.10,2013-09-29 23:58:00,
2013-09-29 20:13:00,57.3,53.0,30.11,East,85,0.0,0.0,86,0.00,,,0.00,weatherlink.com 1.10,2013-09-30 00:13:00,
2013-09-29 20:28:00,56.7,53.0,30.11,East,85,0.0,0.0,87,0.00,,,0.00,weatherlink.com 1.10,2013-09-30 00:28:00,
2013-09-29 20:43:00,56.4,53.0,30.11,East,84,0.0,0.0,87,0.00,,,0.00,weatherlink.com 1.10,2013-09-30 00:43:00,
2013-09-29 20:58:00,55.9,52.0,30.11,East,85,0.0,0.0,87,0.00,,,0.00,weatherlink.com 1.10,2013-09-30 00:58:00,
2013-09-29 21:13:00,55.5,52.0,30.11,East,84,0.0,0.0,88,0.00,,,0.00,weatherlink.com 1.10,2013-09-30 01:13:00,
2013-09-29 21:28:00,55.0,52.0,30.11,East,85,0.0,0.0,88,0.00,,,0.00,weatherlink.com 1.10,2013-09-30 01:28:00,
2013-09-29 21:43:00,54.7,52.0,30.11,East,84,0.0,0.0,89,0.00,,,0.00,weatherlink.com 1.10,2013-09-30 01:43:00,
2013-09-29 21:58:00,54.4,51.0,30.11,East,85,0.0,0.0,89,0.00,,,0.00,weatherlink.com 1.10,2013-09-30 01:58:00,
2013-09-29 22:13:00,54.3,52.0,30.11,East,85,0.0,0.0,90,0.00,,,0.00,weatherlink.com 1.10,2013-09-30 02:13:00,
2013-09-29 22:28:00,54.2,51.0,30.11,East,85,0.0,0.0,90,0.00,,,0.00,weatherlink.com 1.10,2013-09-30 02:28:00,
2013-09-29 22:43:00,54.2,51.0,30.11,East,85,0.0,0.0,90,0.00,,,0.00,weatherlink.com 1.10,2013-09-30 02:43:00,
2013-09-29 22:58:00,54.3,52.0,30.11,East,85,0.0,0.0,91,0.00,,,0.00,weatherlink.com 1.10,2013-09-30 02:58:00,
2013-09-29 23:13:00,54.2,51.0,30.11,East,85,0.0,0.0,90,0.00,,,0.00,weatherlink.com 1.10,2013-09-30 03:13:00,
2013-09-29 23:28:00,54.1,52.0,30.11,East,85,0.0,0.0,91,0.00,,,0.00,weatherlink.com 1.10,2013-09-30 03:28:00,
2013-09-29 23:43:00,54.1,52.0,30.11,East,85,0.0,0.0,91,0.00,,,0.00,weatherlink.com 1.10,2013-09-30 03:43:00,
2013-09-29 23:58:00,53.6,51.0,30.10,East,85,0.0,0.0,91,0.00,,,0.00,weatherlink.com 1.10,2013-09-30 03:58:00,